KVNY/VNY METAR and TAF weather

Enter ICAO airport designator
Station Type Date Time Source
KVNY METAR 2019/05/23 19:01 UTC NOAA

KVNY 231901Z 12010KT 10SM SCT023 OVC037 16/09 A2996 RMK AO2 T01610094


Station Type Date Time Source
KVNY Decoded METAR 2019/05/23 19:01 UTC NOAA

VAN NUYS AIRPORT, CA, United States (KVNY) 34-13N 118-29W 245M
May 23, 2019 - 03:01 PM EDT / 2019.05.23 1901 UTC
Wind: from the ESE (120 degrees) at 12 MPH (10 KT):0
Visibility: 10 mile(s):0
Sky conditions: overcast
Temperature: 61.0 F (16.1 C)
Dew Point: 48.9 F (9.4 C)
Relative Humidity: 64%
Pressure (altimeter): 29.96 in. Hg (1014 hPa)
ob: KVNY 231901Z 12010KT 10SM SCT023 OVC037 16/09 A2996 RMK AO2 T01610094
cycle: 19

Station Type Date Time Source
KVNY TAF 2019/05/23 18:42 UTC NOAA

TAF KVNY 231739Z 2318/2418 14007KT P6SM BKN022 OVC045
FM232000 15010KT P6SM BKN025 BKN060
FM240300 VRB03KT P6SM SCT060 BKN200
FM240700 VRB03KT P6SM BKN015
FM241400 14005KT P6SM BKN020

Example: see airport list